createdAt,value
2022-12-29T00:22:46.741Z,12.62
2022-12-29T00:51:04.464Z,12.44
2022-12-29T01:19:30.124Z,12.57
2022-12-29T01:47:51.316Z,12.42
2022-12-29T02:16:08.232Z,12.38
2022-12-29T02:44:52.720Z,12.41
2022-12-29T03:13:42.219Z,12.26
2022-12-29T03:42:36.532Z,12.1
2022-12-29T04:11:34.827Z,12.11
2022-12-29T04:39:52.882Z,12
2022-12-29T05:08:48.843Z,12.29
2022-12-29T05:37:48.249Z,12.45
2022-12-29T06:06:49.300Z,12.44
2022-12-29T06:35:44.245Z,12.59
2022-12-29T07:04:36.564Z,13
2022-12-29T07:33:40.440Z,13.08
2022-12-29T08:02:32.090Z,13.05
2022-12-29T08:31:31.002Z,13.16
2022-12-29T09:00:21.657Z,13.19
2022-12-29T09:28:41.521Z,13.55
2022-12-29T09:57:06.204Z,14.67
2022-12-29T10:25:13.486Z,13.74
2022-12-29T10:54:16.349Z,13.98
2022-12-29T11:23:06.026Z,13.67
2022-12-29T11:51:49.716Z,13.45
2022-12-29T12:20:40.559Z,13.67
2022-12-29T12:49:33.500Z,13.49
2022-12-29T13:18:25.676Z,13.52
2022-12-29T13:47:22.301Z,13.87
2022-12-29T14:15:39.820Z,13.43
2022-12-29T14:44:00.113Z,13.4
2022-12-29T15:12:04.647Z,10.91
2022-12-29T15:40:27.390Z,10.76
2022-12-29T16:08:40.753Z,10.51
2022-12-29T16:37:01.018Z,10.48
2022-12-29T17:06:00.049Z,10.32
2022-12-29T17:34:29.610Z,10.56
2022-12-29T18:02:44.991Z,10.48
2022-12-29T18:31:00.263Z,9.94
2022-12-29T18:59:18.214Z,9.35
2022-12-29T19:27:35.547Z,9.25
2022-12-29T19:55:56.956Z,9.3
2022-12-29T20:24:14.610Z,9.26
2022-12-29T20:52:34.299Z,8.94
2022-12-29T21:20:50.549Z,8.77
2022-12-29T21:49:09.673Z,8.84
2022-12-29T22:17:42.411Z,8.87
2022-12-29T22:45:49.661Z,9.25
2022-12-29T23:14:38.926Z,9.18
2022-12-29T23:43:21.850Z,8.62
